createdAt,value
2022-10-22T00:00:13.726Z,15.60
2022-10-22T00:01:13.595Z,15.60
2022-10-22T00:02:13.583Z,15.60
2022-10-22T00:03:13.814Z,15.80
2022-10-22T00:04:13.714Z,15.80
2022-10-22T00:05:13.616Z,15.70
2022-10-22T00:06:13.545Z,15.70
2022-10-22T00:07:18.619Z,15.60
2022-10-22T00:08:13.789Z,15.50
2022-10-22T00:09:13.944Z,15.40
2022-10-22T00:10:13.124Z,15.40
2022-10-22T00:11:13.150Z,15.40
2022-10-22T00:12:14.836Z,15.50
2022-10-22T00:13:14.102Z,15.40
2022-10-22T00:14:13.046Z,15.50
2022-10-22T00:15:12.953Z,15.60
2022-10-22T00:16:13.249Z,15.80
2022-10-22T00:17:13.554Z,15.80
2022-10-22T00:18:13.599Z,15.80
2022-10-22T00:19:13.672Z,15.70
2022-10-22T00:20:13.662Z,15.80
2022-10-22T00:21:13.784Z,15.80
2022-10-22T00:22:14.097Z,15.70
2022-10-22T00:23:12.950Z,15.60
2022-10-22T00:24:12.923Z,15.60
2022-10-22T00:25:12.803Z,15.50
2022-10-22T00:26:13.756Z,15.50
2022-10-22T00:27:13.623Z,15.40
2022-10-22T00:28:13.478Z,15.30
2022-10-22T00:29:13.433Z,15.40
2022-10-22T00:30:13.368Z,15.40
2022-10-22T00:31:13.284Z,15.60
2022-10-22T00:32:13.266Z,15.60
2022-10-22T00:33:13.386Z,15.70
2022-10-22T00:34:13.389Z,15.90
2022-10-22T00:35:13.330Z,16.00
2022-10-22T00:36:13.250Z,15.80
2022-10-22T00:37:13.636Z,16.00
2022-10-22T00:38:13.844Z,16.00
2022-10-22T00:39:13.928Z,16.00
2022-10-22T00:40:12.871Z,16.10
2022-10-22T00:41:14.093Z,16.10
2022-10-22T00:42:13.384Z,16.00
2022-10-22T00:43:13.919Z,16.10
2022-10-22T00:44:12.920Z,16.00
2022-10-22T00:45:12.999Z,16.10
2022-10-22T00:46:13.323Z,16.20
2022-10-22T00:47:13.363Z,16.10
2022-10-22T00:48:13.544Z,16.10
2022-10-22T00:49:13.608Z,16.20
2022-10-22T00:50:13.849Z,16.00
2022-10-22T00:51:13.893Z,16.00
2022-10-22T00:52:12.878Z,16.30
2022-10-22T00:53:13.781Z,16.10
2022-10-22T00:54:14.028Z,16.10
2022-10-22T00:55:12.944Z,16.30
2022-10-22T00:56:12.823Z,16.20
2022-10-22T00:57:13.664Z,16.10
2022-10-22T00:58:13.649Z,16.20
2022-10-22T00:59:13.495Z,16.20
2022-10-22T01:00:13.408Z,16.10
2022-10-22T01:01:13.543Z,16.20
2022-10-22T01:02:13.659Z,16.30
2022-10-22T01:03:13.478Z,16.10
2022-10-22T01:04:13.726Z,16.20
2022-10-22T01:05:13.582Z,16.40
2022-10-22T01:06:13.647Z,16.30
2022-10-22T01:07:13.644Z,16.20
2022-10-22T01:08:13.667Z,16.30
2022-10-22T01:09:14.211Z,16.30
2022-10-22T01:10:13.409Z,16.00
2022-10-22T01:11:13.302Z,16.20
2022-10-22T01:12:13.161Z,16.30
2022-10-22T01:13:13.599Z,16.30
2022-10-22T01:14:13.616Z,16.30
2022-10-22T01:15:13.478Z,16.10
2022-10-22T01:16:13.632Z,16.10
2022-10-22T01:17:13.494Z,16.20
2022-10-22T01:18:13.861Z,16.20
2022-10-22T01:19:13.910Z,16.10
2022-10-22T01:20:12.881Z,16.00
2022-10-22T01:21:13.824Z,15.80
2022-10-22T01:22:13.856Z,16.40
2022-10-22T01:23:13.928Z,16.90
2022-10-22T01:24:12.731Z,17.20
2022-10-22T01:25:14.099Z,17.40
2022-10-22T01:26:13.318Z,16.90
2022-10-22T01:27:13.367Z,16.20
2022-10-22T01:28:13.613Z,15.80
2022-10-22T01:29:13.793Z,15.90
2022-10-22T01:30:13.711Z,15.90
2022-10-22T01:31:13.586Z,15.90
2022-10-22T01:32:13.856Z,15.90
2022-10-22T01:33:14.277Z,15.90
2022-10-22T01:34:13.456Z,16.00
2022-10-22T01:35:13.362Z,16.00
2022-10-22T01:36:13.476Z,15.90
2022-10-22T01:37:13.364Z,15.90
2022-10-22T01:38:13.404Z,15.90
2022-10-22T01:39:13.516Z,15.80
2022-10-22T01:40:13.701Z,15.90
2022-10-22T01:41:13.920Z,16.00
2022-10-22T01:42:12.839Z,15.80
2022-10-22T01:43:14.087Z,15.90
2022-10-22T01:44:13.112Z,15.80
2022-10-22T01:45:13.316Z,15.80
2022-10-22T01:46:13.549Z,15.90
2022-10-22T01:47:13.613Z,15.90
2022-10-22T01:48:13.716Z,15.80
2022-10-22T01:49:13.751Z,15.80
2022-10-22T01:50:13.835Z,15.80
2022-10-22T01:51:14.121Z,15.70
2022-10-22T01:52:13.506Z,15.70
2022-10-22T01:53:13.532Z,15.80
2022-10-22T01:54:13.796Z,15.80
2022-10-22T01:55:13.676Z,15.70
2022-10-22T01:56:13.506Z,15.80
2022-10-22T01:57:13.890Z,15.70
2022-10-22T01:58:13.738Z,15.90
2022-10-22T01:59:13.721Z,15.90
2022-10-22T02:00:13.526Z,15.80
2022-10-22T02:01:13.571Z,15.90
2022-10-22T02:02:13.520Z,15.90
2022-10-22T02:03:13.440Z,15.80
2022-10-22T02:04:13.466Z,15.80
2022-10-22T02:05:13.523Z,15.70
2022-10-22T02:06:13.649Z,15.90
2022-10-22T02:07:13.578Z,16.00
2022-10-22T02:08:13.538Z,16.10
2022-10-22T02:09:13.712Z,16.10
2022-10-22T02:10:13.633Z,16.10
2022-10-22T02:11:13.536Z,16.00
2022-10-22T02:12:13.341Z,15.90
2022-10-22T02:13:13.170Z,15.70
2022-10-22T02:14:13.117Z,15.60
2022-10-22T02:15:13.075Z,15.80
2022-10-22T02:16:12.998Z,15.70
2022-10-22T02:17:12.933Z,15.50
2022-10-22T02:18:12.765Z,15.60
2022-10-22T02:19:13.891Z,15.70
2022-10-22T02:20:12.763Z,15.60
2022-10-22T02:21:13.780Z,15.60
2022-10-22T02:22:13.693Z,15.60
2022-10-22T02:23:18.882Z,15.70
2022-10-22T02:24:13.786Z,15.70
2022-10-22T02:25:13.917Z,15.70
2022-10-22T02:26:12.883Z,15.80
2022-10-22T02:27:14.115Z,15.80
2022-10-22T02:28:13.068Z,15.70
2022-10-22T02:29:12.994Z,15.70
2022-10-22T02:30:12.934Z,15.60
2022-10-22T02:31:12.889Z,15.60
2022-10-22T02:32:13.805Z,15.80
2022-10-22T02:33:13.587Z,15.70
2022-10-22T02:34:13.567Z,15.60
2022-10-22T02:35:13.715Z,15.70
2022-10-22T02:36:13.629Z,15.70
2022-10-22T02:37:13.648Z,15.70
2022-10-22T02:38:13.689Z,15.60
2022-10-22T02:39:14.064Z,15.60
2022-10-22T02:40:13.126Z,15.60
2022-10-22T02:41:13.061Z,15.70
2022-10-22T02:42:13.020Z,15.70
2022-10-22T02:43:12.989Z,15.70
2022-10-22T02:44:12.914Z,15.70
2022-10-22T02:45:13.050Z,15.60
2022-10-22T02:46:12.948Z,15.70
2022-10-22T02:47:13.290Z,15.70
2022-10-22T02:48:13.365Z,15.80
2022-10-22T02:49:13.616Z,15.70
2022-10-22T02:50:13.590Z,15.80
2022-10-22T02:51:13.493Z,15.90
2022-10-22T02:52:13.474Z,15.90
2022-10-22T02:53:13.417Z,15.80
2022-10-22T02:54:13.335Z,15.80
2022-10-22T02:55:13.707Z,15.90
2022-10-22T02:56:13.849Z,15.90
2022-10-22T02:57:14.247Z,15.90
2022-10-22T02:58:13.643Z,15.80
2022-10-22T02:59:14.037Z,15.80
2022-10-22T03:00:12.898Z,15.80
2022-10-22T03:01:16.139Z,15.80
2022-10-22T03:02:13.885Z,15.80
2022-10-22T03:03:14.107Z,15.80
2022-10-22T03:04:13.157Z,15.80
2022-10-22T03:05:13.144Z,15.70
2022-10-22T03:06:13.339Z,15.80
2022-10-22T03:07:13.830Z,15.80
2022-10-22T03:08:14.003Z,15.90
2022-10-22T03:09:13.305Z,15.80
2022-10-22T03:10:13.274Z,15.70
2022-10-22T03:11:13.673Z,15.80
2022-10-22T03:12:13.961Z,15.70
2022-10-22T03:13:12.887Z,15.80
2022-10-22T03:14:13.912Z,15.80
2022-10-22T03:15:13.345Z,15.70
2022-10-22T03:16:13.487Z,15.80
2022-10-22T03:17:13.342Z,15.80
2022-10-22T03:18:13.307Z,15.70
2022-10-22T03:19:13.315Z,15.80
2022-10-22T03:20:13.300Z,15.70
2022-10-22T03:21:13.291Z,15.70
2022-10-22T03:22:13.318Z,15.60
2022-10-22T03:23:13.468Z,15.80
2022-10-22T03:24:13.384Z,15.90
2022-10-22T03:25:13.326Z,15.70
2022-10-22T03:26:13.214Z,15.70
2022-10-22T03:27:13.332Z,15.70
2022-10-22T03:28:13.337Z,15.70
2022-10-22T03:29:13.459Z,16.00
2022-10-22T03:30:13.319Z,16.00
2022-10-22T03:31:13.238Z,15.70
2022-10-22T03:32:13.461Z,15.90
2022-10-22T03:33:13.504Z,16.00
2022-10-22T03:34:14.006Z,15.80
2022-10-22T03:35:13.065Z,15.80
2022-10-22T03:36:13.432Z,15.90
2022-10-22T03:37:18.393Z,16.10
2022-10-22T03:38:13.714Z,16.00
2022-10-22T03:39:13.587Z,16.00
2022-10-22T03:40:13.614Z,15.80
2022-10-22T03:41:13.580Z,15.80
2022-10-22T03:42:13.507Z,15.90
2022-10-22T03:43:13.747Z,15.90
2022-10-22T03:44:13.781Z,15.80
2022-10-22T03:45:14.474Z,15.90
2022-10-22T03:46:13.562Z,15.90
2022-10-22T03:47:13.435Z,15.80
2022-10-22T03:48:13.568Z,15.80
2022-10-22T03:49:13.399Z,15.70
2022-10-22T03:50:13.532Z,15.50
2022-10-22T03:51:13.987Z,15.60
2022-10-22T03:52:13.164Z,15.50
2022-10-22T03:53:13.378Z,15.80
2022-10-22T03:54:13.570Z,15.70
2022-10-22T03:55:13.770Z,15.70
2022-10-22T03:56:13.793Z,15.90
2022-10-22T03:57:13.666Z,16.00
2022-10-22T03:58:13.672Z,15.70
2022-10-22T03:59:13.996Z,15.60
2022-10-22T04:00:12.991Z,15.70
2022-10-22T04:01:13.022Z,15.90
2022-10-22T04:02:13.248Z,16.10
2022-10-22T04:03:13.499Z,16.20
2022-10-22T04:04:13.628Z,16.30
2022-10-22T04:06:13.525Z,16.10
2022-10-22T04:07:13.417Z,16.10
2022-10-22T04:08:13.763Z,16.10
2022-10-22T04:09:14.250Z,16.20
2022-10-22T04:10:13.380Z,16.40
2022-10-22T04:11:13.647Z,15.90
2022-10-22T04:12:13.544Z,16.00
2022-10-22T04:13:13.609Z,15.90
2022-10-22T04:14:13.523Z,15.80
2022-10-22T04:15:13.390Z,16.30
2022-10-22T04:16:13.676Z,16.30
2022-10-22T04:17:13.702Z,15.90
2022-10-22T04:18:13.870Z,16.10
2022-10-22T04:19:13.878Z,16.20
2022-10-22T04:20:13.775Z,16.20
2022-10-22T04:21:14.062Z,16.20
2022-10-22T04:22:12.896Z,16.30
2022-10-22T04:23:12.951Z,16.40
2022-10-22T04:24:13.261Z,16.50
2022-10-22T04:25:13.205Z,16.30
2022-10-22T04:26:13.084Z,16.50
2022-10-22T04:27:13.046Z,16.50
2022-10-22T04:28:13.089Z,16.30
2022-10-22T04:29:15.991Z,16.40
2022-10-22T04:30:13.759Z,16.20
2022-10-22T04:31:13.804Z,16.00
2022-10-22T04:32:13.954Z,16.20
2022-10-22T04:33:13.336Z,15.90
2022-10-22T04:34:13.794Z,15.90
2022-10-22T04:35:13.801Z,15.90
2022-10-22T04:36:13.661Z,16.00
2022-10-22T04:37:13.784Z,16.00
2022-10-22T04:38:13.679Z,16.00
2022-10-22T04:39:13.690Z,16.10
2022-10-22T04:40:13.593Z,15.90
2022-10-22T04:41:13.424Z,15.90
2022-10-22T04:42:13.437Z,15.90
2022-10-22T04:43:13.378Z,15.90
2022-10-22T04:44:16.911Z,15.90
2022-10-22T04:45:13.341Z,15.90
2022-10-22T04:46:13.228Z,16.00
2022-10-22T04:47:13.453Z,16.00
2022-10-22T04:48:13.381Z,15.90
2022-10-22T04:49:13.478Z,15.80
2022-10-22T04:50:13.533Z,15.80
2022-10-22T04:51:13.434Z,15.80
2022-10-22T04:52:13.238Z,15.70
2022-10-22T04:53:13.403Z,15.70
2022-10-22T04:54:14.961Z,15.70
2022-10-22T04:55:13.517Z,15.70
2022-10-22T04:56:13.503Z,15.70
2022-10-22T04:57:13.451Z,15.70
2022-10-22T04:58:13.377Z,15.70
2022-10-22T04:59:13.699Z,15.60
2022-10-22T05:00:13.502Z,15.50
2022-10-22T05:01:13.427Z,15.50
2022-10-22T05:02:13.554Z,15.60
2022-10-22T05:03:13.660Z,15.50
2022-10-22T05:04:13.677Z,15.40
2022-10-22T05:05:14.030Z,15.40
2022-10-22T05:07:12.895Z,15.40
2022-10-22T05:08:13.861Z,15.50
2022-10-22T05:09:13.960Z,15.50
2022-10-22T05:10:13.204Z,15.30
2022-10-22T05:11:13.412Z,15.50
2022-10-22T05:12:13.214Z,15.30
2022-10-22T05:13:13.037Z,15.30
2022-10-22T05:14:12.884Z,15.40
2022-10-22T05:15:13.967Z,15.40
2022-10-22T05:16:12.861Z,15.40
2022-10-22T05:17:13.752Z,15.40
2022-10-22T05:18:14.184Z,15.50
2022-10-22T05:19:13.784Z,15.40
2022-10-22T05:20:13.704Z,15.40
2022-10-22T05:21:13.805Z,15.70
2022-10-22T05:22:14.030Z,15.60
2022-10-22T05:23:13.010Z,15.70
2022-10-22T05:24:13.310Z,15.60
2022-10-22T05:25:13.431Z,15.70
2022-10-22T05:26:13.335Z,15.70
2022-10-22T05:27:13.806Z,15.60
2022-10-22T05:28:13.875Z,15.70
2022-10-22T05:29:13.794Z,15.60
2022-10-22T05:30:13.879Z,15.70
2022-10-22T05:31:14.298Z,15.80
2022-10-22T05:32:13.176Z,15.70
2022-10-22T05:33:13.472Z,15.60
2022-10-22T05:34:13.394Z,15.70
2022-10-22T05:35:13.317Z,15.70
2022-10-22T05:36:13.607Z,15.60
2022-10-22T05:37:13.712Z,15.80
2022-10-22T05:38:13.708Z,15.70
2022-10-22T05:39:13.754Z,15.70
2022-10-22T05:40:26.447Z,15.70
2022-10-22T05:41:12.987Z,15.60
2022-10-22T05:42:13.073Z,15.60
2022-10-22T05:43:12.899Z,15.70
2022-10-22T05:44:13.835Z,15.70
2022-10-22T05:45:13.685Z,15.60
2022-10-22T05:46:16.547Z,15.80
2022-10-22T05:47:13.708Z,15.80
2022-10-22T05:48:13.658Z,15.80
2022-10-22T05:49:14.061Z,15.80
2022-10-22T05:50:12.932Z,16.00
2022-10-22T05:51:12.816Z,16.80
2022-10-22T05:52:13.692Z,16.80
2022-10-22T05:53:13.575Z,16.60
2022-10-22T05:54:13.568Z,16.00
2022-10-22T05:55:13.581Z,16.00
2022-10-22T05:56:14.727Z,15.60
2022-10-22T05:57:13.710Z,15.90
2022-10-22T05:58:14.885Z,15.70
2022-10-22T05:59:12.875Z,15.80
2022-10-22T06:00:16.387Z,15.70
2022-10-22T06:01:13.558Z,15.50
2022-10-22T06:02:14.617Z,15.70
2022-10-22T06:03:13.777Z,15.50
2022-10-22T06:04:12.880Z,15.50
2022-10-22T06:05:13.893Z,15.50
2022-10-22T06:06:12.923Z,15.50
2022-10-22T06:07:13.167Z,15.40
2022-10-22T06:08:18.153Z,15.50
2022-10-22T06:09:13.601Z,15.70
2022-10-22T06:10:13.544Z,15.50
2022-10-22T06:11:13.470Z,15.50
2022-10-22T06:12:13.699Z,15.60
2022-10-22T06:13:13.577Z,15.60
2022-10-22T06:14:13.497Z,15.40
2022-10-22T06:15:13.759Z,15.50
2022-10-22T06:16:13.786Z,15.60
2022-10-22T06:17:13.872Z,15.60
2022-10-22T06:18:14.008Z,15.40
2022-10-22T06:19:12.907Z,15.40
2022-10-22T06:20:13.307Z,15.50
2022-10-22T06:21:13.263Z,15.30
2022-10-22T06:22:13.476Z,15.50
2022-10-22T06:23:13.506Z,15.40
2022-10-22T06:24:13.549Z,15.40
2022-10-22T06:25:13.359Z,15.50
2022-10-22T06:26:13.658Z,15.50
2022-10-22T06:27:36.671Z,15.20
2022-10-22T06:28:13.674Z,15.20
2022-10-22T06:29:13.551Z,15.60
2022-10-22T06:30:18.677Z,15.40
2022-10-22T06:31:13.654Z,15.30
2022-10-22T06:32:13.893Z,15.50
2022-10-22T06:33:14.089Z,15.30
2022-10-22T06:34:13.380Z,15.30
2022-10-22T06:35:13.332Z,15.30
2022-10-22T06:36:13.604Z,15.40
2022-10-22T06:37:13.845Z,15.50
2022-10-22T06:38:13.890Z,15.50
2022-10-22T06:39:12.912Z,15.40
2022-10-22T06:40:12.765Z,15.50
2022-10-22T06:41:13.852Z,15.50
2022-10-22T06:42:13.977Z,15.40
2022-10-22T06:43:13.156Z,15.50
2022-10-22T06:44:13.114Z,15.70
2022-10-22T06:45:13.014Z,15.80
2022-10-22T06:46:14.931Z,15.80
2022-10-22T06:47:13.594Z,15.70
2022-10-22T06:48:13.499Z,15.60
2022-10-22T06:49:13.681Z,15.60
2022-10-22T06:50:13.695Z,15.50
2022-10-22T06:51:13.733Z,15.70
2022-10-22T06:52:13.897Z,15.80
2022-10-22T06:53:13.988Z,15.80
2022-10-22T06:54:12.920Z,15.80
2022-10-22T06:55:12.910Z,15.80
2022-10-22T06:56:13.377Z,15.70
2022-10-22T06:57:13.477Z,15.70
2022-10-22T06:58:13.286Z,15.70
2022-10-22T06:59:13.332Z,15.90
2022-10-22T07:00:13.232Z,16.00
2022-10-22T07:01:13.238Z,16.20
2022-10-22T07:02:13.184Z,15.80
2022-10-22T07:03:13.289Z,16.00
2022-10-22T07:04:13.122Z,16.10
2022-10-22T07:05:12.990Z,16.20
2022-10-22T07:06:12.907Z,16.00
2022-10-22T07:07:12.956Z,16.00
2022-10-22T07:08:12.869Z,16.10
2022-10-22T07:09:14.104Z,16.40
2022-10-22T07:10:13.371Z,16.30
2022-10-22T07:11:13.496Z,16.30
2022-10-22T07:12:13.845Z,16.30
2022-10-22T07:13:13.762Z,16.30
2022-10-22T07:14:13.718Z,16.50
2022-10-22T07:15:13.609Z,16.40
2022-10-22T07:16:13.827Z,16.30
2022-10-22T07:17:13.730Z,16.40
2022-10-22T07:18:19.017Z,16.40
2022-10-22T07:19:12.935Z,16.50
2022-10-22T07:20:12.956Z,16.50
2022-10-22T07:21:12.866Z,16.50
2022-10-22T07:22:14.046Z,16.50
2022-10-22T07:23:12.867Z,16.50
2022-10-22T07:24:13.737Z,16.40
2022-10-22T07:25:13.865Z,16.50
2022-10-22T07:26:44.536Z,16.70
2022-10-22T07:27:14.114Z,16.60
2022-10-22T07:28:13.280Z,16.70
2022-10-22T07:29:13.196Z,16.60
2022-10-22T07:30:13.371Z,16.70
2022-10-22T07:31:13.243Z,16.50
2022-10-22T07:32:13.288Z,16.40
2022-10-22T07:33:13.369Z,16.40
2022-10-22T07:34:13.582Z,16.50
2022-10-22T07:35:13.770Z,16.40
2022-10-22T07:36:14.233Z,16.30
2022-10-22T07:38:01.216Z,16.50
2022-10-22T07:38:13.339Z,16.60
2022-10-22T07:39:35.548Z,16.50
2022-10-22T07:40:13.907Z,16.50
2022-10-22T07:41:13.091Z,16.40
2022-10-22T07:42:20.463Z,16.50
2022-10-22T07:43:13.897Z,16.60
2022-10-22T07:44:13.360Z,16.60
2022-10-22T07:45:35.507Z,16.80
2022-10-22T07:46:13.808Z,16.70
2022-10-22T07:47:13.907Z,16.50
2022-10-22T07:48:12.745Z,16.40
2022-10-22T07:49:13.790Z,16.40
2022-10-22T07:50:13.700Z,16.40
2022-10-22T07:51:13.713Z,16.60
2022-10-22T07:52:13.888Z,16.60
2022-10-22T07:53:12.902Z,16.70
2022-10-22T07:54:13.159Z,16.60
2022-10-22T07:55:44.679Z,16.70
2022-10-22T07:56:13.630Z,16.70
2022-10-22T07:57:13.571Z,16.80
2022-10-22T07:58:13.960Z,16.80
2022-10-22T07:59:13.366Z,16.90
2022-10-22T08:00:13.838Z,16.80
2022-10-22T08:01:14.087Z,16.90
2022-10-22T08:02:13.415Z,16.80
2022-10-22T08:03:13.491Z,16.90
2022-10-22T08:04:13.506Z,16.90
2022-10-22T08:05:42.154Z,17.00
2022-10-22T08:06:13.170Z,17.10
2022-10-22T08:07:13.354Z,17.10
2022-10-22T08:08:13.588Z,17.40
2022-10-22T08:09:13.753Z,17.30
2022-10-22T08:10:13.803Z,17.40
2022-10-22T08:11:19.064Z,17.20
2022-10-22T08:12:13.166Z,17.20
2022-10-22T08:13:13.387Z,17.40
2022-10-22T08:14:13.337Z,17.40
2022-10-22T08:15:13.598Z,17.40
2022-10-22T08:16:14.089Z,17.40
2022-10-22T08:17:13.380Z,17.60
2022-10-22T08:18:13.258Z,17.50
2022-10-22T08:19:13.320Z,17.90
2022-10-22T08:20:13.356Z,17.80
2022-10-22T08:21:13.773Z,17.60
2022-10-22T08:22:14.246Z,17.80
2022-10-22T08:23:13.356Z,17.50
2022-10-22T08:24:14.449Z,17.60
2022-10-22T08:25:13.638Z,17.50
2022-10-22T08:26:13.568Z,17.60
2022-10-22T08:27:13.793Z,17.60
2022-10-22T08:28:14.999Z,17.80
2022-10-22T08:29:13.620Z,17.80
2022-10-22T08:30:13.949Z,18.00
2022-10-22T08:31:48.140Z,17.80
2022-10-22T08:32:13.410Z,18.10
2022-10-22T08:33:13.479Z,18.00
2022-10-22T08:34:13.458Z,17.90
2022-10-22T08:35:16.801Z,17.80
2022-10-22T08:36:13.955Z,18.20
2022-10-22T08:37:12.887Z,18.50
2022-10-22T08:38:12.795Z,18.70
2022-10-22T08:39:14.101Z,18.60
2022-10-22T08:40:13.146Z,18.40
2022-10-22T08:41:13.062Z,18.40
2022-10-22T08:42:18.107Z,18.60
2022-10-22T08:43:13.383Z,18.80
2022-10-22T08:44:13.374Z,18.90
2022-10-22T08:45:13.623Z,18.50
2022-10-22T08:46:13.833Z,18.30
2022-10-22T08:48:24.605Z,18.20
2022-10-22T08:49:13.737Z,18.10
2022-10-22T08:50:13.682Z,18.00
2022-10-22T08:51:42.970Z,18.00
2022-10-22T08:52:13.006Z,18.30
2022-10-22T08:53:13.137Z,17.90
2022-10-22T08:54:13.508Z,17.80
2022-10-22T08:55:13.731Z,18.10
2022-10-22T08:56:13.880Z,17.70
2022-10-22T08:57:13.901Z,17.80
2022-10-22T08:58:13.039Z,17.70
2022-10-22T08:59:13.090Z,17.70
2022-10-22T09:00:13.021Z,17.70
2022-10-22T09:01:13.172Z,17.60
2022-10-22T09:02:14.172Z,17.60
2022-10-22T09:03:13.605Z,17.60
2022-10-22T09:04:13.853Z,17.30
2022-10-22T09:05:13.995Z,17.70
2022-10-22T09:06:13.262Z,17.80
2022-10-22T09:07:13.493Z,17.70
2022-10-22T09:08:13.550Z,17.70
2022-10-22T09:09:13.539Z,17.60
2022-10-22T09:10:13.719Z,17.40
2022-10-22T09:11:13.786Z,17.40
2022-10-22T09:12:17.728Z,17.40
2022-10-22T09:13:13.218Z,17.50
2022-10-22T09:14:13.305Z,17.60
2022-10-22T09:15:13.273Z,17.40
2022-10-22T09:16:13.298Z,17.40
2022-10-22T09:17:13.125Z,17.40
2022-10-22T09:18:13.387Z,17.20
2022-10-22T09:19:13.274Z,17.10
2022-10-22T09:20:13.333Z,16.90
2022-10-22T09:21:13.492Z,17.10
2022-10-22T09:22:13.458Z,17.10
2022-10-22T09:23:13.357Z,17.10
2022-10-22T09:24:13.286Z,17.00
2022-10-22T09:25:13.263Z,17.30
2022-10-22T09:26:13.149Z,17.20
2022-10-22T09:27:13.578Z,17.60
2022-10-22T09:28:13.893Z,17.10
2022-10-22T09:29:14.223Z,17.10
2022-10-22T09:30:14.533Z,17.40
2022-10-22T09:31:13.477Z,17.40
2022-10-22T09:32:13.414Z,17.40
2022-10-22T09:33:13.399Z,17.30
2022-10-22T09:34:13.333Z,17.10
2022-10-22T09:35:13.487Z,17.40
2022-10-22T09:36:13.590Z,17.10
2022-10-22T09:37:13.635Z,17.10
2022-10-22T09:38:13.631Z,17.10
2022-10-22T09:39:13.707Z,17.10
2022-10-22T09:40:13.722Z,17.20
2022-10-22T09:41:13.776Z,17.20
2022-10-22T09:42:13.802Z,17.20
2022-10-22T09:43:13.786Z,17.60
2022-10-22T09:44:13.838Z,17.50
2022-10-22T09:45:13.831Z,17.50
2022-10-22T09:46:13.850Z,17.40
2022-10-22T09:47:14.609Z,17.60
2022-10-22T09:48:13.843Z,17.20
2022-10-22T09:49:14.887Z,17.20
2022-10-22T09:50:14.224Z,17.40
2022-10-22T09:51:13.360Z,17.70
2022-10-22T09:52:13.371Z,17.90
2022-10-22T09:53:13.563Z,17.90
2022-10-22T09:54:13.767Z,18.10
2022-10-22T09:55:13.689Z,18.30
2022-10-22T09:56:13.933Z,18.30
2022-10-22T09:57:12.858Z,18.10
2022-10-22T09:58:13.863Z,18.20
2022-10-22T09:59:13.914Z,17.90
2022-10-22T10:00:13.016Z,17.80
2022-10-22T10:01:17.992Z,18.00
2022-10-22T10:02:20.391Z,18.40
2022-10-22T10:03:13.180Z,17.70
2022-10-22T10:04:13.188Z,17.90
2022-10-22T10:05:13.474Z,17.90
2022-10-22T10:06:13.596Z,17.90
2022-10-22T10:07:13.472Z,17.60
2022-10-22T10:08:14.038Z,18.10
2022-10-22T10:09:13.145Z,18.10
2022-10-22T10:10:13.264Z,17.80
2022-10-22T10:11:13.268Z,17.90
2022-10-22T10:12:13.129Z,17.70
2022-10-22T10:13:13.223Z,17.60
2022-10-22T10:14:13.419Z,17.50
2022-10-22T10:15:13.847Z,17.80
2022-10-22T10:16:14.145Z,17.90
2022-10-22T10:17:13.248Z,17.70
2022-10-22T10:18:13.268Z,17.90
2022-10-22T10:19:13.205Z,17.90
2022-10-22T10:20:13.311Z,17.60
2022-10-22T10:22:13.756Z,17.40
2022-10-22T10:23:13.771Z,17.70
2022-10-22T10:24:13.846Z,17.80
2022-10-22T10:25:13.799Z,17.60
2022-10-22T10:26:13.781Z,17.60
2022-10-22T10:27:13.743Z,17.60
2022-10-22T10:28:13.582Z,17.90
2022-10-22T10:29:13.523Z,18.00
2022-10-22T10:30:13.388Z,17.60
2022-10-22T10:31:14.405Z,17.60
2022-10-22T10:32:13.296Z,17.60
2022-10-22T10:33:13.424Z,17.80
2022-10-22T10:34:13.499Z,17.50
2022-10-22T10:35:13.438Z,17.40
2022-10-22T10:36:13.649Z,17.70
2022-10-22T10:37:13.753Z,17.60
2022-10-22T10:38:13.967Z,17.00
2022-10-22T10:39:14.164Z,17.00
2022-10-22T10:40:13.170Z,17.10
2022-10-22T10:41:13.331Z,17.10
2022-10-22T10:42:13.328Z,17.20
2022-10-22T10:43:13.499Z,17.20
2022-10-22T10:44:13.375Z,17.20
2022-10-22T10:45:13.260Z,17.10
2022-10-22T10:46:13.106Z,17.30
2022-10-22T10:47:12.975Z,17.00
2022-10-22T10:48:12.983Z,17.00
2022-10-22T10:49:12.880Z,17.20
2022-10-22T10:50:13.783Z,17.00
2022-10-22T10:51:14.043Z,17.00
2022-10-22T10:52:17.431Z,17.00
2022-10-22T10:53:13.512Z,17.20
2022-10-22T10:54:13.350Z,17.00
2022-10-22T10:55:13.667Z,16.80
2022-10-22T10:56:13.469Z,17.10
2022-10-22T10:57:13.561Z,17.00
2022-10-22T10:58:13.379Z,17.10
2022-10-22T10:59:13.477Z,17.10
2022-10-22T11:00:13.761Z,17.10
2022-10-22T11:01:14.062Z,17.00
2022-10-22T11:02:13.326Z,17.20
2022-10-22T11:03:13.173Z,17.10
2022-10-22T11:04:13.342Z,17.00
2022-10-22T11:05:13.277Z,17.10
2022-10-22T11:06:13.128Z,17.30
2022-10-22T11:07:30.002Z,17.10
2022-10-22T11:08:13.252Z,17.30
2022-10-22T11:09:13.351Z,17.60
2022-10-22T11:10:13.324Z,17.40
2022-10-22T11:11:13.220Z,17.90
2022-10-22T11:12:13.367Z,17.50
2022-10-22T11:13:13.512Z,17.60
2022-10-22T11:14:13.447Z,17.30
2022-10-22T11:15:13.499Z,17.60
2022-10-22T11:16:13.564Z,18.00
2022-10-22T11:17:13.567Z,17.60
2022-10-22T11:18:13.471Z,17.40
2022-10-22T11:19:22.533Z,17.70
2022-10-22T11:20:13.965Z,17.80
2022-10-22T11:21:12.832Z,17.90
2022-10-22T11:22:13.909Z,17.80
2022-10-22T11:23:19.487Z,17.80
2022-10-22T11:24:13.741Z,17.70
2022-10-22T11:25:13.757Z,17.80
2022-10-22T11:26:14.658Z,18.10
2022-10-22T11:27:13.728Z,18.00
2022-10-22T11:29:13.815Z,17.70
2022-10-22T11:30:13.913Z,17.60
2022-10-22T11:31:13.022Z,17.80
2022-10-22T11:32:13.269Z,17.80
2022-10-22T11:33:13.446Z,17.80
2022-10-22T11:34:32.717Z,17.70
2022-10-22T11:35:12.876Z,17.70
2022-10-22T11:36:12.789Z,17.70
2022-10-22T11:37:13.733Z,17.60
2022-10-22T11:38:13.846Z,17.60
2022-10-22T11:39:13.765Z,17.60
2022-10-22T11:40:13.917Z,17.70
2022-10-22T11:41:13.056Z,17.80
2022-10-22T11:42:13.229Z,17.90
2022-10-22T11:43:13.515Z,17.70
2022-10-22T11:44:13.892Z,17.70
2022-10-22T11:45:12.958Z,18.20
2022-10-22T11:46:13.042Z,17.80
2022-10-22T11:47:13.415Z,17.70
2022-10-22T11:48:13.739Z,17.60
2022-10-22T11:49:13.844Z,17.60
2022-10-22T11:50:14.141Z,17.70
2022-10-22T11:51:13.105Z,17.60
2022-10-22T11:52:13.455Z,17.60
2022-10-22T11:53:13.935Z,17.90
2022-10-22T11:54:13.250Z,17.90
2022-10-22T11:55:13.204Z,18.00
2022-10-22T11:56:13.210Z,17.60
2022-10-22T11:57:13.269Z,17.80
2022-10-22T11:58:13.630Z,17.90
2022-10-22T11:59:13.960Z,18.00
2022-10-22T12:00:12.824Z,17.90
2022-10-22T12:01:13.879Z,17.90
2022-10-22T12:02:14.057Z,18.00
2022-10-22T12:03:13.292Z,17.80
2022-10-22T12:04:13.262Z,17.70
2022-10-22T12:05:13.217Z,18.00
2022-10-22T12:06:13.408Z,18.10
2022-10-22T12:07:13.383Z,18.00
2022-10-22T12:08:15.603Z,17.80
2022-10-22T12:09:13.127Z,17.70
2022-10-22T12:10:14.983Z,18.10
2022-10-22T12:11:13.899Z,17.90
2022-10-22T12:12:12.966Z,17.90
2022-10-22T12:13:13.254Z,17.90
2022-10-22T12:14:13.302Z,17.80
2022-10-22T12:15:13.389Z,17.90
2022-10-22T12:16:14.882Z,18.20
2022-10-22T12:17:13.191Z,18.10
2022-10-22T12:19:12.904Z,17.70
2022-10-22T12:20:12.775Z,17.60
2022-10-22T12:21:13.932Z,17.80
2022-10-22T12:22:13.121Z,17.90
2022-10-22T12:23:13.002Z,18.00
2022-10-22T12:24:13.168Z,17.90
2022-10-22T12:25:13.206Z,17.80
2022-10-22T12:26:13.251Z,17.70
2022-10-22T12:27:14.623Z,17.80
2022-10-22T12:28:14.015Z,17.90
2022-10-22T12:29:13.225Z,17.80
2022-10-22T12:30:13.318Z,17.80
2022-10-22T12:31:13.301Z,17.80
2022-10-22T12:32:13.598Z,17.60
2022-10-22T12:33:13.710Z,17.80
2022-10-22T12:34:13.656Z,17.80
2022-10-22T12:35:13.646Z,17.90
2022-10-22T12:36:14.712Z,17.80
2022-10-22T12:37:13.684Z,17.90
2022-10-22T12:38:13.943Z,17.60
2022-10-22T12:39:13.119Z,17.70
2022-10-22T12:40:13.079Z,18.00
2022-10-22T12:41:13.337Z,18.20
2022-10-22T12:42:13.305Z,17.80
2022-10-22T12:43:13.341Z,18.20
2022-10-22T12:44:13.363Z,18.50
2022-10-22T12:45:14.014Z,18.20
2022-10-22T12:46:13.012Z,18.30
2022-10-22T12:47:13.008Z,18.20
2022-10-22T12:48:13.108Z,18.50
2022-10-22T12:49:14.167Z,18.30
2022-10-22T12:50:13.048Z,17.80
2022-10-22T12:51:13.127Z,17.60
2022-10-22T12:52:14.064Z,17.70
2022-10-22T12:53:13.381Z,17.80
2022-10-22T12:54:13.536Z,18.00
2022-10-22T12:55:13.568Z,18.00
2022-10-22T12:56:13.366Z,17.80
2022-10-22T12:57:13.279Z,17.70
2022-10-22T12:58:13.070Z,17.70